sensor_id;sensor_type;location;lat;lon;timestamp;pressure;altitude;pressure_sealevel;temperature;humidity
64679;BME280;51094;53.864;27.676;2023-06-26T00:02:15;98973.06;;;18.51;52.67
64679;BME280;51094;53.864;27.676;2023-06-26T00:04:43;98981.47;;;18.47;52.69
64679;BME280;51094;53.864;27.676;2023-06-26T00:07:10;98887.22;;;17.85;52.79
64679;BME280;51094;53.864;27.676;2023-06-26T00:09:37;98977.00;;;18.47;52.85
64679;BME280;51094;53.864;27.676;2023-06-26T00:12:04;98918.31;;;18.14;52.65
64679;BME280;51094;53.864;27.676;2023-06-26T00:14:31;99004.00;;;18.74;52.87
64679;BME280;51094;53.864;27.676;2023-06-26T00:16:58;99019.81;;;18.74;52.73
64679;BME280;51094;53.864;27.676;2023-06-26T00:19:25;98909.91;;;18.19;52.68
64679;BME280;51094;53.864;27.676;2023-06-26T00:21:52;98851.53;;;17.83;52.83
64679;BME280;51094;53.864;27.676;2023-06-26T00:24:19;98960.88;;;18.58;52.69
64679;BME280;51094;53.864;27.676;2023-06-26T00:26:47;98996.59;;;18.85;52.65
64679;BME280;51094;53.864;27.676;2023-06-26T00:29:14;98937.84;;;18.52;52.68
64679;BME280;51094;53.864;27.676;2023-06-26T00:31:41;98820.13;;;17.57;52.51
64679;BME280;51094;53.864;27.676;2023-06-26T00:34:08;98978.50;;;18.74;52.72
64679;BME280;51094;53.864;27.676;2023-06-26T00:36:35;98989.16;;;18.89;52.83
64679;BME280;51094;53.864;27.676;2023-06-26T00:39:03;98900.69;;;18.39;52.57
64679;BME280;51094;53.864;27.676;2023-06-26T00:41:30;98877.16;;;18.29;52.72
64679;BME280;51094;53.864;27.676;2023-06-26T00:43:57;98962.00;;;18.88;52.59
64679;BME280;51094;53.864;27.676;2023-06-26T00:46:26;98935.53;;;18.74;52.60
64679;BME280;51094;53.864;27.676;2023-06-26T00:48:54;98993.06;;;19.09;52.55
64679;BME280;51094;53.864;27.676;2023-06-26T00:51:21;99003.16;;;19.06;52.28
64679;BME280;51094;53.864;27.676;2023-06-26T00:53:49;98999.03;;;19.03;51.93
64679;BME280;51094;53.864;27.676;2023-06-26T00:56:18;98925.66;;;18.59;52.40
64679;BME280;51094;53.864;27.676;2023-06-26T00:58:46;98965.47;;;18.81;52.25
64679;BME280;51094;53.864;27.676;2023-06-26T01:01:13;98976.81;;;18.89;52.84
64679;BME280;51094;53.864;27.676;2023-06-26T01:03:44;98861.25;;;18.15;52.89
64679;BME280;51094;53.864;27.676;2023-06-26T01:06:13;98995.25;;;18.98;53.03
64679;BME280;51094;53.864;27.676;2023-06-26T01:08:41;98923.22;;;18.50;53.00
64679;BME280;51094;53.864;27.676;2023-06-26T01:11:10;98993.63;;;18.80;53.76
64679;BME280;51094;53.864;27.676;2023-06-26T01:13:38;98994.78;;;18.70;54.12
64679;BME280;51094;53.864;27.676;2023-06-26T01:16:06;98987.72;;;18.70;53.97
64679;BME280;51094;53.864;27.676;2023-06-26T01:18:34;98935.72;;;18.32;54.21
64679;BME280;51094;53.864;27.676;2023-06-26T01:21:02;98998.75;;;18.66;54.39
64679;BME280;51094;53.864;27.676;2023-06-26T01:23:37;98995.44;;;18.64;54.42
64679;BME280;51094;53.864;27.676;2023-06-26T01:28:45;98880.31;;;18.01;54.78
64679;BME280;51094;53.864;27.676;2023-06-26T01:31:13;99028.69;;;18.73;54.96
64679;BME280;51094;53.864;27.676;2023-06-26T01:33:41;98832.13;;;17.59;55.02
64679;BME280;51094;53.864;27.676;2023-06-26T01:36:08;98964.84;;;18.38;54.88
64679;BME280;51094;53.864;27.676;2023-06-26T01:38:35;98842.31;;;17.62;54.87
64679;BME280;51094;53.864;27.676;2023-06-26T01:41:04;98879.16;;;17.87;55.05
64679;BME280;51094;53.864;27.676;2023-06-26T01:54:54;98996.91;;;18.82;54.77
64679;BME280;51094;53.864;27.676;2023-06-26T01:57:22;99000.03;;;18.86;54.78
64679;BME280;51094;53.864;27.676;2023-06-26T01:59:54;98932.25;;;18.39;55.24
64679;BME280;51094;53.864;27.676;2023-06-26T02:02:23;98992.81;;;18.80;54.90
64679;BME280;51094;53.864;27.676;2023-06-26T02:04:51;98896.94;;;18.17;54.99
64679;BME280;51094;53.864;27.676;2023-06-26T02:07:18;98962.84;;;18.65;55.26
64679;BME280;51094;53.864;27.676;2023-06-26T02:09:45;98999.22;;;18.85;55.07
64679;BME280;51094;53.864;27.676;2023-06-26T02:12:12;98965.16;;;18.76;54.84
64679;BME280;51094;53.864;27.676;2023-06-26T02:14:39;98981.94;;;18.91;54.47
64679;BME280;51094;53.864;27.676;2023-06-26T02:17:06;98920.25;;;18.45;54.59
64679;BME280;51094;53.864;27.676;2023-06-26T02:19:34;98983.25;;;18.95;54.57
64679;BME280;51094;53.864;27.676;2023-06-26T02:22:01;98987.50;;;18.96;54.24
64679;BME280;51094;53.864;27.676;2023-06-26T02:24:28;98984.22;;;18.94;54.63
64679;BME280;51094;53.864;27.676;2023-06-26T02:26:57;98978.31;;;18.68;54.55
64679;BME280;51094;53.864;27.676;2023-06-26T02:29:24;98981.44;;;18.71;54.83
64679;BME280;51094;53.864;27.676;2023-06-26T02:31:51;98984.25;;;18.70;55.17
64679;BME280;51094;53.864;27.676;2023-06-26T02:34:17;98857.91;;;17.64;55.56
64679;BME280;51094;53.864;27.676;2023-06-26T02:36:44;98955.13;;;18.47;55.67
64679;BME280;51094;53.864;27.676;2023-06-26T02:39:13;98880.97;;;17.94;56.36
64679;BME280;51094;53.864;27.676;2023-06-26T02:41:40;98785.59;;;17.36;56.92
64679;BME280;51094;53.864;27.676;2023-06-26T02:44:07;98982.47;;;18.62;56.89
64679;BME280;51094;53.864;27.676;2023-06-26T02:46:34;98890.84;;;18.09;57.14
64679;BME280;51094;53.864;27.676;2023-06-26T02:49:01;98896.28;;;18.15;56.86
64679;BME280;51094;53.864;27.676;2023-06-26T02:51:28;98933.75;;;18.34;56.59
64679;BME280;51094;53.864;27.676;2023-06-26T02:53:56;98975.69;;;18.59;56.88
64679;BME280;51094;53.864;27.676;2023-06-26T02:56:23;98972.41;;;18.57;56.69
64679;BME280;51094;53.864;27.676;2023-06-26T02:58:50;98852.34;;;17.83;56.79
64679;BME280;51094;53.864;27.676;2023-06-26T03:01:17;98895.44;;;18.07;56.91
64679;BME280;51094;53.864;27.676;2023-06-26T03:03:44;98941.47;;;18.43;57.25
64679;BME280;51094;53.864;27.676;2023-06-26T03:06:16;98971.59;;;18.65;56.68
64679;BME280;51094;53.864;27.676;2023-06-26T03:08:44;98922.72;;;18.46;56.32
64679;BME280;51094;53.864;27.676;2023-06-26T03:11:13;98969.75;;;18.74;56.26
64679;BME280;51094;53.864;27.676;2023-06-26T03:13:40;98848.41;;;18.04;56.35
64679;BME280;51094;53.864;27.676;2023-06-26T03:16:06;98946.72;;;18.59;55.94
64679;BME280;51094;53.864;27.676;2023-06-26T03:18:33;98958.25;;;18.67;56.00
64679;BME280;51094;53.864;27.676;2023-06-26T03:21:00;98962.22;;;18.63;56.31
64679;BME280;51094;53.864;27.676;2023-06-26T03:23:27;98959.91;;;18.59;56.53
64679;BME280;51094;53.864;27.676;2023-06-26T03:25:54;98773.44;;;17.35;56.31
64679;BME280;51094;53.864;27.676;2023-06-26T03:28:32;98969.94;;;18.56;56.61
64679;BME280;51094;53.864;27.676;2023-06-26T03:30:59;98965.84;;;18.62;56.78
64679;BME280;51094;53.864;27.676;2023-06-26T03:33:26;98958.59;;;18.64;56.48
64679;BME280;51094;53.864;27.676;2023-06-26T03:35:54;98903.84;;;18.18;56.69
64679;BME280;51094;53.864;27.676;2023-06-26T03:38:22;98966.03;;;18.60;56.65
64679;BME280;51094;53.864;27.676;2023-06-26T03:40:51;98940.66;;;18.51;56.51
64679;BME280;51094;53.864;27.676;2023-06-26T03:43:18;98937.53;;;18.47;56.60
64679;BME280;51094;53.864;27.676;2023-06-26T03:45:56;98897.25;;;17.98;56.95
64679;BME280;51094;53.864;27.676;2023-06-26T03:48:25;98907.91;;;18.21;57.23
64679;BME280;51094;53.864;27.676;2023-06-26T03:50:52;98909.88;;;18.35;57.64
64679;BME280;51094;53.864;27.676;2023-06-26T03:53:19;98877.19;;;18.13;57.96
64679;BME280;51094;53.864;27.676;2023-06-26T03:55:45;98966.84;;;18.60;58.48
64679;BME280;51094;53.864;27.676;2023-06-26T03:58:12;98875.38;;;17.98;57.73
64679;BME280;51094;53.864;27.676;2023-06-26T04:00:39;98872.41;;;17.84;59.13
64679;BME280;51094;53.864;27.676;2023-06-26T04:03:06;98878.84;;;17.98;58.59
64679;BME280;51094;53.864;27.676;2023-06-26T04:05:33;98962.53;;;18.51;58.40
64679;BME280;51094;53.864;27.676;2023-06-26T04:08:01;98964.66;;;18.56;58.60
64679;BME280;51094;53.864;27.676;2023-06-26T04:10:27;98964.88;;;18.63;58.20
64679;BME280;51094;53.864;27.676;2023-06-26T04:12:54;98968.28;;;18.71;58.41
64679;BME280;51094;53.864;27.676;2023-06-26T04:15:21;98902.66;;;18.29;58.32
64679;BME280;51094;53.864;27.676;2023-06-26T04:17:48;98935.22;;;18.52;58.27
64679;BME280;51094;53.864;27.676;2023-06-26T04:20:15;98910.88;;;18.42;58.05
64679;BME280;51094;53.864;27.676;2023-06-26T04:22:41;98964.00;;;18.70;57.70
64679;BME280;51094;53.864;27.676;2023-06-26T04:25:09;98958.91;;;18.69;57.90
64679;BME280;51094;53.864;27.676;2023-06-26T04:27:38;98868.81;;;18.10;57.92
64679;BME280;51094;53.864;27.676;2023-06-26T04:30:07;98950.69;;;18.64;57.75
64679;BME280;51094;53.864;27.676;2023-06-26T04:32:34;98957.13;;;18.61;58.02
64679;BME280;51094;53.864;27.676;2023-06-26T04:35:01;98957.59;;;18.65;58.01
64679;BME280;51094;53.864;27.676;2023-06-26T04:37:29;98929.47;;;18.49;57.96
64679;BME280;51094;53.864;27.676;2023-06-26T04:39:56;98953.16;;;18.65;57.90
64679;BME280;51094;53.864;27.676;2023-06-26T04:42:23;98962.53;;;18.68;57.81
64679;BME280;51094;53.864;27.676;2023-06-26T04:44:50;98945.06;;;18.67;57.94
64679;BME280;51094;53.864;27.676;2023-06-26T04:47:17;98845.13;;;18.02;57.93
64679;BME280;51094;53.864;27.676;2023-06-26T04:49:44;98954.09;;;18.88;57.54
64679;BME280;51094;53.864;27.676;2023-06-26T04:52:12;98952.59;;;18.94;57.00
64679;BME280;51094;53.864;27.676;2023-06-26T04:54:42;98904.91;;;18.65;57.08
64679;BME280;51094;53.864;27.676;2023-06-26T04:57:09;98928.94;;;18.78;57.27
64679;BME280;51094;53.864;27.676;2023-06-26T04:59:37;98914.31;;;18.67;57.33
64679;BME280;51094;53.864;27.676;2023-06-26T05:02:04;98953.94;;;18.90;57.58
64679;BME280;51094;53.864;27.676;2023-06-26T05:04:31;98935.81;;;18.95;57.37
64679;BME280;51094;53.864;27.676;2023-06-26T05:06:59;98798.09;;;18.15;57.38
64679;BME280;51094;53.864;27.676;2023-06-26T05:09:26;98889.41;;;18.78;57.25
64679;BME280;51094;53.864;27.676;2023-06-26T05:11:53;98934.41;;;19.15;57.25
64679;BME280;51094;53.864;27.676;2023-06-26T05:14:19;98937.00;;;19.23;57.46
64679;BME280;51094;53.864;27.676;2023-06-26T05:16:49;98881.94;;;19.06;56.83
64679;BME280;51094;53.864;27.676;2023-06-26T05:19:16;98933.66;;;19.38;56.86
64679;BME280;51094;53.864;27.676;2023-06-26T05:21:43;98909.69;;;19.16;56.58
64679;BME280;51094;53.864;27.676;2023-06-26T05:24:12;98897.53;;;19.07;56.86
64679;BME280;51094;53.864;27.676;2023-06-26T05:26:40;98935.47;;;19.37;55.95
64679;BME280;51094;53.864;27.676;2023-06-26T05:29:07;98939.34;;;19.18;56.38
64679;BME280;51094;53.864;27.676;2023-06-26T05:31:38;98954.00;;;19.13;56.58
64679;BME280;51094;53.864;27.676;2023-06-26T05:34:07;98794.91;;;18.27;56.32
64679;BME280;51094;53.864;27.676;2023-06-26T05:36:38;98936.63;;;19.04;56.69
64679;BME280;51094;53.864;27.676;2023-06-26T05:39:05;98906.50;;;18.98;56.72
64679;BME280;51094;53.864;27.676;2023-06-26T05:41:33;98929.41;;;19.28;57.09
64679;BME280;51094;53.864;27.676;2023-06-26T05:43:59;98926.06;;;19.43;56.43
64679;BME280;51094;53.864;27.676;2023-06-26T05:46:26;98928.66;;;19.51;55.98
64679;BME280;51094;53.864;27.676;2023-06-26T05:48:53;98934.19;;;19.64;56.03
64679;BME280;51094;53.864;27.676;2023-06-26T05:51:20;98928.22;;;19.70;55.07
64679;BME280;51094;53.864;27.676;2023-06-26T05:53:48;98930.03;;;19.70;54.53
64679;BME280;51094;53.864;27.676;2023-06-26T05:56:15;98926.59;;;19.69;54.96
64679;BME280;51094;53.864;27.676;2023-06-26T05:58:42;98856.09;;;19.32;55.02
64679;BME280;51094;53.864;27.676;2023-06-26T06:01:10;98923.91;;;19.77;54.85
64679;BME280;51094;53.864;27.676;2023-06-26T06:03:39;98873.59;;;19.56;55.20
64679;BME280;51094;53.864;27.676;2023-06-26T06:06:06;98927.66;;;20.06;54.64
64679;BME280;51094;53.864;27.676;2023-06-26T06:08:33;98919.66;;;20.14;54.63
64679;BME280;51094;53.864;27.676;2023-06-26T06:11:00;98831.63;;;19.69;54.54
64679;BME280;51094;53.864;27.676;2023-06-26T06:13:28;98919.53;;;20.30;54.11
64679;BME280;51094;53.864;27.676;2023-06-26T06:15:55;98967.72;;;20.32;53.68
64679;BME280;51094;53.864;27.676;2023-06-26T06:18:22;98897.66;;;20.21;54.09
64679;BME280;51094;53.864;27.676;2023-06-26T06:20:49;98852.09;;;20.05;53.49
64679;BME280;51094;53.864;27.676;2023-06-26T06:23:16;98920.22;;;20.47;53.41
64679;BME280;51094;53.864;27.676;2023-06-26T06:25:43;98920.00;;;20.34;52.95
64679;BME280;51094;53.864;27.676;2023-06-26T06:28:10;98926.97;;;20.49;53.30
64679;BME280;51094;53.864;27.676;2023-06-26T06:30:37;98911.03;;;20.57;52.40
64679;BME280;51094;53.864;27.676;2023-06-26T06:33:06;98896.28;;;20.48;52.10
64679;BME280;51094;53.864;27.676;2023-06-26T06:35:33;98919.09;;;20.79;51.84
64679;BME280;51094;53.864;27.676;2023-06-26T06:38:00;98859.84;;;20.44;49.00
64679;BME280;51094;53.864;27.676;2023-06-26T06:40:27;98863.63;;;20.26;49.50
64679;BME280;51094;53.864;27.676;2023-06-26T06:42:54;98922.44;;;20.87;49.35
64679;BME280;51094;53.864;27.676;2023-06-26T06:45:21;98868.22;;;20.47;48.47
64679;BME280;51094;53.864;27.676;2023-06-26T06:47:48;98918.34;;;20.85;48.36
64679;BME280;51094;53.864;27.676;2023-06-26T06:50:15;98827.41;;;20.35;46.58
64679;BME280;51094;53.864;27.676;2023-06-26T06:52:43;98920.44;;;21.04;47.35
64679;BME280;51094;53.864;27.676;2023-06-26T06:55:10;98861.94;;;20.92;47.07
64679;BME280;51094;53.864;27.676;2023-06-26T06:57:38;98918.69;;;21.41;44.19
64679;BME280;51094;53.864;27.676;2023-06-26T07:00:10;98863.28;;;21.03;44.95
64679;BME280;51094;53.864;27.676;2023-06-26T07:02:39;98865.03;;;21.47;44.57
64679;BME280;51094;53.864;27.676;2023-06-26T07:05:06;98762.72;;;21.11;43.97
64679;BME280;51094;53.864;27.676;2023-06-26T07:07:34;98804.91;;;21.55;41.99
64679;BME280;51094;53.864;27.676;2023-06-26T07:10:04;98902.19;;;22.45;42.06
64679;BME280;51094;53.864;27.676;2023-06-26T07:12:31;98909.06;;;22.68;40.59
64679;BME280;51094;53.864;27.676;2023-06-26T07:15:00;98907.34;;;22.81;39.67
64679;BME280;51094;53.864;27.676;2023-06-26T07:17:28;98817.81;;;22.42;40.05
64679;BME280;51094;53.864;27.676;2023-06-26T07:19:54;98856.41;;;22.86;39.79
64679;BME280;51094;53.864;27.676;2023-06-26T07:22:22;98907.34;;;23.22;37.96
64679;BME280;51094;53.864;27.676;2023-06-26T07:24:49;98903.06;;;23.21;39.10
64679;BME280;51094;53.864;27.676;2023-06-26T07:27:17;98835.09;;;22.73;36.10
64679;BME280;51094;53.864;27.676;2023-06-26T07:29:46;98894.81;;;23.03;37.41
64679;BME280;51094;53.864;27.676;2023-06-26T07:32:13;98761.25;;;22.22;38.17
64679;BME280;51094;53.864;27.676;2023-06-26T07:34:41;98708.81;;;22.04;38.83
64679;BME280;51094;53.864;27.676;2023-06-26T07:37:08;98873.16;;;23.00;38.30
64679;BME280;51094;53.864;27.676;2023-06-26T07:39:35;98910.00;;;23.22;38.85
64679;BME280;51094;53.864;27.676;2023-06-26T07:42:02;98862.19;;;23.09;38.19
64679;BME280;51094;53.864;27.676;2023-06-26T07:44:29;98897.53;;;23.77;37.93
64679;BME280;51094;53.864;27.676;2023-06-26T07:46:55;98846.78;;;23.46;37.27
64679;BME280;51094;53.864;27.676;2023-06-26T07:49:22;98791.84;;;23.20;38.83
64679;BME280;51094;53.864;27.676;2023-06-26T07:51:49;98816.59;;;23.34;34.70
64679;BME280;51094;53.864;27.676;2023-06-26T07:54:16;98862.38;;;23.55;35.09
64679;BME280;51094;53.864;27.676;2023-06-26T07:59:20;98890.22;;;24.19;37.30
64679;BME280;51094;53.864;27.676;2023-06-26T08:01:50;98920.25;;;24.66;37.01
64679;BME280;51094;53.864;27.676;2023-06-26T08:04:23;98874.59;;;24.82;36.46
64679;BME280;51094;53.864;27.676;2023-06-26T08:06:53;98892.34;;;24.95;35.29
64679;BME280;51094;53.864;27.676;2023-06-26T08:09:22;98859.75;;;24.48;35.99
64679;BME280;51094;53.864;27.676;2023-06-26T08:11:50;98887.56;;;24.39;36.36
64679;BME280;51094;53.864;27.676;2023-06-26T08:14:17;98883.22;;;23.72;36.36
64679;BME280;51094;53.864;27.676;2023-06-26T08:16:46;98886.53;;;23.26;36.65
64679;BME280;51094;53.864;27.676;2023-06-26T08:19:14;98845.06;;;22.71;37.50
64679;BME280;51094;53.864;27.676;2023-06-26T08:21:42;98880.13;;;23.07;37.25
64679;BME280;51094;53.864;27.676;2023-06-26T08:24:10;98877.91;;;23.65;35.43
64679;BME280;51094;53.864;27.676;2023-06-26T08:26:37;98824.63;;;23.93;34.73
64679;BME280;51094;53.864;27.676;2023-06-26T08:29:04;98760.47;;;23.96;33.37
64679;BME280;51094;53.864;27.676;2023-06-26T08:31:39;98875.38;;;25.02;32.83
64679;BME280;51094;53.864;27.676;2023-06-26T08:34:07;98757.28;;;24.65;32.08
64679;BME280;51094;53.864;27.676;2023-06-26T08:36:34;98778.38;;;25.05;31.20
64679;BME280;51094;53.864;27.676;2023-06-26T08:39:01;98802.50;;;25.10;30.28
64679;BME280;51094;53.864;27.676;2023-06-26T08:41:29;98868.09;;;25.67;31.38
64679;BME280;51094;53.864;27.676;2023-06-26T08:43:56;98869.66;;;25.81;28.59
64679;BME280;51094;53.864;27.676;2023-06-26T08:46:24;98847.38;;;25.76;27.85
64679;BME280;51094;53.864;27.676;2023-06-26T08:48:55;98862.41;;;25.64;28.83
64679;BME280;51094;53.864;27.676;2023-06-26T08:51:27;98861.06;;;25.79;30.52
64679;BME280;51094;53.864;27.676;2023-06-26T08:53:59;98865.91;;;25.89;30.11
64679;BME280;51094;53.864;27.676;2023-06-26T08:56:33;98857.81;;;25.39;31.05
64679;BME280;51094;53.864;27.676;2023-06-26T08:59:02;98760.63;;;24.92;29.16
64679;BME280;51094;53.864;27.676;2023-06-26T09:01:31;98858.72;;;25.58;29.16
64679;BME280;51094;53.864;27.676;2023-06-26T09:03:58;98854.78;;;25.67;30.36
64679;BME280;51094;53.864;27.676;2023-06-26T09:06:25;98784.09;;;25.71;30.07
64679;BME280;51094;53.864;27.676;2023-06-26T09:08:53;98841.19;;;26.50;30.19
64679;BME280;51094;53.864;27.676;2023-06-26T09:11:20;98776.25;;;26.44;29.26
64679;BME280;51094;53.864;27.676;2023-06-26T09:13:47;98745.13;;;26.75;29.23
64679;BME280;51094;53.864;27.676;2023-06-26T09:16:14;98846.00;;;27.74;28.12
64679;BME280;51094;53.864;27.676;2023-06-26T09:18:41;98830.69;;;27.40;27.03
64679;BME280;51094;53.864;27.676;2023-06-26T09:21:09;98796.63;;;26.75;27.06
64679;BME280;51094;53.864;27.676;2023-06-26T09:23:36;98846.13;;;26.71;28.09
64679;BME280;51094;53.864;27.676;2023-06-26T09:26:06;98770.91;;;26.01;28.58
64679;BME280;51094;53.864;27.676;2023-06-26T09:28:33;98845.06;;;26.36;28.93
64679;BME280;51094;53.864;27.676;2023-06-26T09:31:05;98836.84;;;26.74;29.87
64679;BME280;51094;53.864;27.676;2023-06-26T09:33:36;98783.31;;;26.87;29.56
64679;BME280;51094;53.864;27.676;2023-06-26T09:36:07;98829.69;;;27.53;28.31
64679;BME280;51094;53.864;27.676;2023-06-26T09:38:35;98823.75;;;27.92;27.04
64679;BME280;51094;53.864;27.676;2023-06-26T09:41:05;98716.66;;;27.59;26.98
64679;BME280;51094;53.864;27.676;2023-06-26T09:43:32;98815.88;;;28.44;26.87
64679;BME280;51094;53.864;27.676;2023-06-26T09:46:00;98826.53;;;28.67;25.52
64679;BME280;51094;53.864;27.676;2023-06-26T09:48:28;98812.81;;;28.87;24.80
64679;BME280;51094;53.864;27.676;2023-06-26T09:50:55;98757.22;;;28.66;23.47
64679;BME280;51094;53.864;27.676;2023-06-26T09:53:38;98756.25;;;28.08;25.26
64679;BME280;51094;53.864;27.676;2023-06-26T09:56:06;98810.38;;;27.80;25.96
64679;BME280;51094;53.864;27.676;2023-06-26T09:58:33;98766.81;;;27.68;26.52
64679;BME280;51094;53.864;27.676;2023-06-26T10:01:00;98797.84;;;28.16;25.84
64679;BME280;51094;53.864;27.676;2023-06-26T10:03:28;98797.03;;;28.51;25.60
64679;BME280;51094;53.864;27.676;2023-06-26T10:05:56;98795.59;;;28.71;24.94
64679;BME280;51094;53.864;27.676;2023-06-26T10:08:23;98788.47;;;28.25;25.50
64679;BME280;51094;53.864;27.676;2023-06-26T10:10:51;98796.81;;;28.05;25.32
64679;BME280;51094;53.864;27.676;2023-06-26T10:13:22;98650.44;;;26.84;26.10
64679;BME280;51094;53.864;27.676;2023-06-26T10:15:52;98780.53;;;28.19;25.58
64679;BME280;51094;53.864;27.676;2023-06-26T10:18:24;98705.81;;;28.12;26.07
64679;BME280;51094;53.864;27.676;2023-06-26T10:20:53;98680.41;;;27.98;24.95
64679;BME280;51094;53.864;27.676;2023-06-26T10:23:23;98766.59;;;28.92;24.46
64679;BME280;51094;53.864;27.676;2023-06-26T10:25:51;98734.91;;;29.00;23.85
64679;BME280;51094;53.864;27.676;2023-06-26T10:28:20;98745.91;;;28.87;24.51
64679;BME280;51094;53.864;27.676;2023-06-26T10:30:50;98673.84;;;28.29;25.06
64679;BME280;51094;53.864;27.676;2023-06-26T10:33:19;98736.91;;;28.93;25.21
64679;BME280;51094;53.864;27.676;2023-06-26T10:35:46;98765.75;;;29.20;25.41
64679;BME280;51094;53.864;27.676;2023-06-26T10:38:13;98727.81;;;29.23;24.57
64679;BME280;51094;53.864;27.676;2023-06-26T10:40:48;98766.94;;;29.91;24.26
64679;BME280;51094;53.864;27.676;2023-06-26T10:43:18;98670.69;;;29.67;24.02
64679;BME280;51094;53.864;27.676;2023-06-26T10:45:49;98700.94;;;29.85;23.39
64679;BME280;51094;53.864;27.676;2023-06-26T10:48:19;98762.31;;;30.20;23.75
64679;BME280;51094;53.864;27.676;2023-06-26T10:50:49;98628.38;;;29.91;23.03
64679;BME280;51094;53.864;27.676;2023-06-26T10:55:55;98693.97;;;31.20;22.37
64679;BME280;51094;53.864;27.676;2023-06-26T11:03:39;98749.47;;;32.62;20.84
64679;BME280;51094;53.864;27.676;2023-06-26T11:06:22;98721.38;;;31.86;20.64
64679;BME280;51094;53.864;27.676;2023-06-26T11:08:51;98702.81;;;31.84;20.37
64679;BME280;51094;53.864;27.676;2023-06-26T11:11:22;98768.59;;;32.61;19.45
64679;BME280;51094;53.864;27.676;2023-06-26T11:14:09;98702.53;;;33.56;19.33
64679;BME280;51094;53.864;27.676;2023-06-26T11:16:36;98759.53;;;34.50;16.87
64679;BME280;51094;53.864;27.676;2023-06-26T11:19:03;98762.06;;;35.97;17.02
64679;BME280;51094;53.864;27.676;2023-06-26T11:21:31;98682.56;;;37.68;14.91
64679;BME280;51094;53.864;27.676;2023-06-26T11:23:58;98699.66;;;39.22;14.12
64679;BME280;51094;53.864;27.676;2023-06-26T11:26:27;98722.09;;;40.12;12.93
64679;BME280;51094;53.864;27.676;2023-06-26T11:28:55;98747.84;;;41.93;11.36
64679;BME280;51094;53.864;27.676;2023-06-26T11:31:30;98669.84;;;43.04;11.31
64679;BME280;51094;53.864;27.676;2023-06-26T11:34:05;98741.22;;;41.04;11.84
64679;BME280;51094;53.864;27.676;2023-06-26T11:36:32;98749.72;;;40.28;12.92
64679;BME280;51094;53.864;27.676;2023-06-26T11:39:01;98729.81;;;43.30;11.45
64679;BME280;51094;53.864;27.676;2023-06-26T11:41:36;98704.78;;;46.37;9.50
64679;BME280;51094;53.864;27.676;2023-06-26T11:44:05;98752.66;;;42.63;10.80
64679;BME280;51094;53.864;27.676;2023-06-26T11:46:34;98739.44;;;40.25;12.67
64679;BME280;51094;53.864;27.676;2023-06-26T11:49:07;98745.13;;;37.39;14.71
64679;BME280;51094;53.864;27.676;2023-06-26T11:51:35;98744.59;;;35.90;16.00
64679;BME280;51094;53.864;27.676;2023-06-26T11:54:05;98675.03;;;33.39;18.36
64679;BME280;51094;53.864;27.676;2023-06-26T11:56:32;98686.00;;;32.09;19.23
64679;BME280;51094;53.864;27.676;2023-06-26T12:01:38;98623.28;;;29.68;21.27
64679;BME280;51094;53.864;27.676;2023-06-26T12:04:07;98721.34;;;29.69;21.66
64679;BME280;51094;53.864;27.676;2023-06-26T12:06:37;98714.50;;;29.28;21.94
64679;BME280;51094;53.864;27.676;2023-06-26T12:09:10;98523.88;;;27.50;23.05
64679;BME280;51094;53.864;27.676;2023-06-26T12:11:40;98660.25;;;29.88;21.46
64679;BME280;51094;53.864;27.676;2023-06-26T12:14:08;98750.69;;;29.97;21.49
64679;BME280;51094;53.864;27.676;2023-06-26T12:16:36;98705.16;;;31.12;21.96
64679;BME280;51094;53.864;27.676;2023-06-26T12:19:05;98717.34;;;36.53;17.09
64679;BME280;51094;53.864;27.676;2023-06-26T12:24:10;98636.31;;;37.73;16.33
64679;BME280;51094;53.864;27.676;2023-06-26T12:26:43;98730.56;;;33.70;19.20
64679;BME280;51094;53.864;27.676;2023-06-26T12:29:12;98606.72;;;30.15;23.01
64679;BME280;51094;53.864;27.676;2023-06-26T12:31:41;98741.88;;;28.61;26.01
64679;BME280;51094;53.864;27.676;2023-06-26T12:34:13;98649.28;;;26.62;28.55
64679;BME280;51094;53.864;27.676;2023-06-26T12:36:46;98735.50;;;26.74;30.19
64679;BME280;51094;53.864;27.676;2023-06-26T12:39:18;98778.25;;;26.31;31.70
64679;BME280;51094;53.864;27.676;2023-06-26T12:46:47;98678.25;;;24.79;35.25
64679;BME280;51094;53.864;27.676;2023-06-26T12:49:16;98509.19;;;23.64;34.28
64679;BME280;51094;53.864;27.676;2023-06-26T12:51:58;98692.34;;;25.17;34.01
64679;BME280;51094;53.864;27.676;2023-06-26T12:54:26;98746.28;;;25.56;33.17
64679;BME280;51094;53.864;27.676;2023-06-26T12:56:53;98674.47;;;25.00;32.36
64679;BME280;51094;53.864;27.676;2023-06-26T12:59:21;98768.41;;;25.88;32.96
64679;BME280;51094;53.864;27.676;2023-06-26T13:01:48;98777.06;;;26.45;34.92
64679;BME280;51094;53.864;27.676;2023-06-26T13:04:16;98763.66;;;26.70;37.26
64679;BME280;51094;53.864;27.676;2023-06-26T13:06:43;98781.72;;;26.49;38.42
64679;BME280;51094;53.864;27.676;2023-06-26T13:09:11;98706.97;;;25.83;39.49
64679;BME280;51094;53.864;27.676;2023-06-26T13:11:38;98763.88;;;25.89;40.20
64679;BME280;51094;53.864;27.676;2023-06-26T13:14:05;98791.53;;;25.56;40.16
64679;BME280;51094;53.864;27.676;2023-06-26T13:16:38;98766.84;;;25.17;41.22
64679;BME280;51094;53.864;27.676;2023-06-26T13:19:05;98764.09;;;24.93;40.71
64679;BME280;51094;53.864;27.676;2023-06-26T13:21:33;98801.34;;;24.99;41.47
64679;BME280;51094;53.864;27.676;2023-06-26T13:24:01;98755.31;;;24.41;42.92
64679;BME280;51094;53.864;27.676;2023-06-26T13:26:28;98714.09;;;24.12;41.50
64679;BME280;51094;53.864;27.676;2023-06-26T13:29:04;98792.50;;;24.47;42.24
64679;BME280;51094;53.864;27.676;2023-06-26T13:31:31;98641.91;;;23.57;42.79